Lahaina, HI (96761)

3:53 PM HST on July 27, 2016 (GMT -1000)
West Mahi Pua | | Change Station

Elev 256 ft 20.92 °N, 156.68 °W | Updated 12 minutes ago

Partly Cloudy
Partly Cloudy
91.8 °F
Feels Like 98 °F
N
7.3
Wind Variable Wind from NW

Today
High -- | Low -- °F
--% Chance of Precip.
Yesterday
High -- | Low -- °F
Precip. -- in
Pressure 29.98 in
Visibility 15.0 miles
Clouds Few 3500 ft
Few 4500 ft
Heat Index 98 °F
Dew Point 70 °F
Humidity 49%
Rainfall 0.00 in
Snow Depth Not available.
5:59 AM 7:07 PM
Last Quarter, 37% visible
METAR PHJH 280045Z 06017G22KT 15SM FEW035 FEW045 28/20 A2998
Pressure 29.98 in
Visibility 15.0 miles
Clouds Few 3500 ft
Few 4500 ft
Heat Index 98 °F
Dew Point 70 °F
Humidity 49%
Rainfall 0.00 in
Snow Depth Not available.
5:59 AM 7:07 PM
Last Quarter, 37% visible
METAR PHJH 280045Z 06017G22KT 15SM FEW035 FEW045 28/20 A2998

10-Day Weather Forecast

Almanac

Astronomy

Jul. 27, 2016 Rise Set
Actual Time
Civil Twilight
Nautical Twilight
Astronomical Twilight
Moon
Length of Visible Light
Length of Day
Tomorrow will be .
, % of the Moon is Illuminated

Today's Extremes

State Highs State Lows

Community

WunderPhotos

Upload Photos

1,928,005 photos uploaded!

WunderBlog® & News

Nearby

Air Quality

  Air Quality AQ Index Pollutant
Not available.

Snow Depth

Station Depth Elevation

Earthquake Activity

City Distance Mag. Time & Date
Minimum magnitude displayed is 2.5.

Coastal Water Temperatures

Place Temperature

Stations

Nearby Weather Stations

Station Location Temp. Windchill Dew Point Humidity Wind Precip. Elev Updated Type
                   

Watches & Warnings

There are currently no watches in effect.